Relevés horaires Matro (Suisse)


Relevés horaires à Matro - Jeudi 09 Oct. 2014
Heure UTC1 Température [°C] Vent [km/h] Hum. [%] Pres.4 [hPa] Visi. [Km] Nébu. [octa] Préc.5 [mm] Cond.
2m. Res. Ros. Dir.2 Vit. Moy. Raf.3
23:00 7.1 1.8 7.1 SSE 44.4 44.4 55.6 100 850(0.0/3h) -- -- -- --
22:00 6.8 1.5 6.8 SSE 42.6 44.4 61.1 100 850(0.2/3h) -- -- -- --
21:00 6.9 1.8 6.8 SSE 40.7 44.4 53.7 99 850(0.0/3h) -- -- -- --
20:00 6.9 2.4 6.9 SSE 31.5 40.7 50.0 100 850(0.1/3h) -- -- -- --
19:00 6.8 1.8 6.8 SSE 38.9 38.9 53.7 100 850(0.1/3h) -- -- -- --
18:00 6.8 2.6 6.8 SE 27.8 37.0 46.3 100 850(0.2/3h) -- -- -- --
17:00 6.3 2.3 6.0 SE 24.1 29.6 44.4 98 850(0.0/3h) -- -- -- --
16:00 6.8 2.1 5.8 S 33.3 33.3 46.3 93 850(-0.2/3h) -- -- -- --
15:00 6.5 1.9 5.8 SSE 31.5 37.0 46.3 95 850(-0.4/3h) -- -- -- --
14:00 6.4 1.8 5.6 SSE 31.5 35.2 42.6 95 850(-0.5/3h) -- -- -- --
13:00 6.5 1.8 5.2 SSE 33.3 37.0 46.3 91 850(-0.4/3h) -- -- -- --
12:00 6.2 1.2 5.4 SSE 35.2 38.9 57.4 95 850(-0.3/3h) -- -- -- --
11:00 6.2 1.5 5.4 SSE 31.5 33.3 46.3 95 850(0.2/3h) -- -- -- --
10:00 5.8 0.6 5.4 SSE 37.0 35.2 57.4 97 850(0.5/3h) -- -- -- --
09:00 5.6 0.4 4.5 SSE 35.2 37.0 53.7 93 850(0.9/3h) -- -- -- --
08:00 5.7 0.8 3.7 SSE 31.5 37.0 53.7 87 850(0.7/3h) -- -- -- --
07:00 5.8 0.6 3.0 SSE 37.0 37.0 50.0 82 850(0.4/3h) -- -- -- --
06:00 5.2 0.2 3.1 SSE 31.5 46.3 61.1 86 850(0.1/3h) -- -- -- --
05:00 5.6 0.7 3.5 SSE 31.5 37.0 48.2 86 850(0.0/3h) -- -- -- --
04:00 5.5 0.3 3.8 SSE 35.2 35.2 44.4 89 850(-0.4/3h) -- -- -- --
03:00 5.7 0.3 5.0 SSE 38.9 46.3 61.1 95 850(-0.3/3h) -- -- -- --
02:00 6.1 0.6 6.1 SSE 42.6 42.6 55.6 100 850(0.1/3h) -- -- -- --
01:00 5.7 0.1 5.7 SSE 42.6 46.3 61.1 100 850(0.1/3h) -- -- -- --
00:00 6.2 0.6 6.2 SSE 44.4 51.9 66.7 100 850(-0.2/3h) -- -- -- --

1 Coordinated Universal Time. Actuellement il est 22:00 locale et 20:00 UTC.

2 Le vent souffle depuis la direction indiquée vers la direction oposée.

3 Les rafales max. sont disponible 40 min après l'heure du relevé.

4 Pour les stations d'altitude (plus de 600m) le géopotentiel du niveau le plus proche de la pression obligatoire est indiqué.

5 Les stations disposant d'un diffuseur peuvent indiquer "trace". Cela signifie que des précipitations ont touchés le sol mais que la quantité est inférieure à 0.1 mm.

Copyright

Les données affichées sur cette page sont la propriété exclusive de Météo Suisse.

Récapitulatif de la journée
Température [°C] Vent [km/h] Ensoleillement4 [h] Precipitations totale5 [mm] Pression [Hpa]
Min1 Max.2 Moy.3 Max. Min Max.
4.9 6.8 39.4 66.7 0 h 6 min 0 850.0 850.0

1 Température minimale relevée entre 18:00 UTC la veille et 18:00 UTC le jour donné.

2 Température maximale relevée entre 06:00 UTC le jour donné et 06:00 UTC le lendemain.

3 Vent moyen de la journée basé sur les relevés horaires.

4 Ensoleillement en heures relevé entre 06:00 UTC la veille et 06:00 UTC le jour donné.

5 Précipitations totales tombées entre 06:00 UTC la jour donné et 06:00 UTC le lendemain.

Graphiques horaires